Time;durP1;ratioP1;P1;durP2;ratioP2;P2;SDS_P1;SDS_P2;PMS_P1;PMS_P2;Temp;Humidity;BMP_temperature;BMP_pressure;BME280_temperature;BME280_humidity;BME280_pressure;Samples;Min_cycle;Max_cycle;Signal;HPM_P1;HPM_P2
2021/06/20 00:00:22;;;;;;;16.75;8.30;;;;;;;26.23;61.55;99579.91;20670988;28;20057;-74
2021/06/20 00:10:26;;;;;;;17.30;10.60;;;;;;;26.21;62.20;99606.91;20749592;28;20046;-74
2021/06/20 00:20:30;;;;;;;18.27;10.35;;;;;;;25.98;63.79;99618.94;20746266;28;20141;-74
2021/06/20 00:30:34;;;;;;;21.48;11.20;;;;;;;25.96;63.78;99653.06;20746206;28;20057;-74
2021/06/20 00:40:36;;;;;;;21.90;10.98;;;;;;;25.77;62.57;99653.91;20745399;28;20128;-75
2021/06/20 00:50:38;;;;;;;24.73;10.10;;;;;;;25.70;60.76;99653.59;20744704;28;20050;-74
2021/06/20 01:00:39;;;;;;;29.40;10.25;;;;;;;25.53;60.55;99667.66;20744027;28;20041;-73
2021/06/20 01:10:42;;;;;;;27.17;9.75;;;;;;;25.37;61.23;99688.78;20744837;28;20050;-75
2021/06/20 01:20:45;;;;;;;29.23;9.77;;;;;;;25.25;60.95;99713.00;20744572;28;20057;-75
2021/06/20 01:30:48;;;;;;;25.25;9.38;;;;;;;25.11;61.49;99756.22;20742855;28;20049;-74
2021/06/20 01:40:50;;;;;;;29.53;9.23;;;;;;;25.02;60.77;99773.06;20742708;28;20072;-74
2021/06/20 01:50:52;;;;;;;18.13;6.25;;;;;;;24.97;59.23;99770.78;20741964;28;20137;-73
2021/06/20 02:00:56;;;;;;;19.65;6.15;;;;;;;24.82;58.89;99786.34;20740738;28;20176;-74
2021/06/20 02:10:58;;;;;;;13.73;4.50;;;;;;;24.64;57.24;99795.06;20723120;28;20060;-73
2021/06/20 02:21:00;;;;;;;15.27;3.55;;;;;;;24.45;56.93;99812.66;20738961;28;20049;-74
2021/06/20 02:31:02;;;;;;;16.00;3.70;;;;;;;24.23;56.98;99839.44;20738440;28;20049;-74
2021/06/20 02:41:04;;;;;;;10.50;3.40;;;;;;;24.06;57.40;99811.38;20738836;28;20622;-74
2021/06/20 02:51:06;;;;;;;10.73;3.30;;;;;;;23.98;58.68;99812.00;20739282;28;20058;-74
2021/06/20 03:01:08;;;;;;;10.32;3.78;;;;;;;23.85;59.79;99848.72;20737585;28;20046;-74
2021/06/20 03:11:10;;;;;;;14.43;3.88;;;;;;;23.62;60.90;99871.03;20738006;28;20517;-73
2021/06/20 03:21:12;;;;;;;11.35;3.88;;;;;;;23.36;61.50;99891.78;20672061;28;20105;-73
2021/06/20 03:31:17;;;;;;;14.68;3.88;;;;;;;23.38;61.51;99887.16;20668793;28;20047;-74
2021/06/20 03:41:19;;;;;;;12.18;3.45;;;;;;;23.28;61.10;99905.72;20668559;28;20046;-75
2021/06/20 03:51:21;;;;;;;11.88;3.38;;;;;;;23.04;61.14;99911.09;20667197;28;20496;-74
2021/06/20 04:01:23;;;;;;;11.05;3.28;;;;;;;23.07;60.88;99897.50;20655578;28;20047;-73
2021/06/20 04:11:26;;;;;;;8.65;2.95;;;;;;;23.10;59.54;99872.41;20571741;28;20493;-75
2021/06/20 04:21:28;;;;;;;11.15;3.17;;;;;;;23.42;59.02;99885.94;20585144;28;20098;-74
2021/06/20 04:31:30;;;;;;;9.45;2.95;;;;;;;23.44;57.81;99897.38;20583942;28;20055;-73
2021/06/20 04:41:32;;;;;;;9.80;2.30;;;;;;;24.56;53.82;99918.81;20583460;28;20097;-71
2021/06/20 04:51:39;;;;;;;7.80;2.35;;;;;;;23.89;54.73;99918.84;20582480;28;20054;-73
2021/06/20 05:01:40;;;;;;;7.13;1.95;;;;;;;23.68;54.71;99935.59;20582227;28;20504;-73
2021/06/20 05:11:42;;;;;;;4.47;1.88;;;;;;;23.65;53.97;99959.88;20581621;28;20050;-74
2021/06/20 05:21:44;;;;;;;4.55;1.80;;;;;;;23.76;54.14;99929.63;20580125;28;20105;-74
2021/06/20 05:31:46;;;;;;;5.05;1.73;;;;;;;23.89;53.31;99942.91;20594248;28;20475;-73
2021/06/20 05:41:48;;;;;;;7.22;1.80;;;;;;;24.08;52.97;99958.38;20562130;28;20138;-73
2021/06/20 05:51:50;;;;;;;5.43;1.63;;;;;;;24.28;53.24;99953.13;20562115;28;20141;-71
2021/06/20 06:01:52;;;;;;;7.05;2.13;;;;;;;24.17;54.81;99945.09;20578215;28;20733;-71
2021/06/20 06:11:53;;;;;;;6.93;2.20;;;;;;;24.51;53.72;99953.13;20576316;28;20051;-71
2021/06/20 06:21:55;;;;;;;6.72;2.15;;;;;;;24.26;54.77;99947.06;20628647;28;20051;-71
2021/06/20 06:31:57;;;;;;;8.32;2.20;;;;;;;24.52;54.66;99960.19;20656629;28;20533;-73
2021/06/20 06:42:00;;;;;;;7.10;2.05;;;;;;;24.63;53.46;99949.47;20656980;28;20058;-73
2021/06/20 06:52:03;;;;;;;;;;;;;;;24.69;53.09;99946.28;20656762;28;20108;-73
2021/06/20 07:02:06;;;;;;;7.82;2.33;;;;;;;24.84;53.41;99944.19;20656597;28;19930;-71
2021/06/20 07:12:08;;;;;;;10.18;2.40;;;;;;;24.44;55.33;99968.00;20624696;28;20046;-72
2021/06/20 07:22:09;;;;;;;7.85;2.40;;;;;;;24.37;55.17;99972.13;20627437;28;20053;-72
2021/06/20 07:32:11;;;;;;;5.65;2.67;;;;;;;24.46;55.24;99945.47;20585793;28;20055;-73
2021/06/20 07:42:12;;;;;;;10.15;3.20;;;;;;;24.75;54.88;99967.19;20614218;28;20046;-73
2021/06/20 07:52:14;;;;;;;7.10;2.67;;;;;;;24.78;53.43;99926.81;20679481;28;20484;-73
2021/06/20 08:02:17;;;;;;;8.30;2.58;;;;;;;24.93;53.25;99934.53;20662318;28;20061;-73
2021/06/20 08:12:19;;;;;;;9.47;2.83;;;;;;;24.79;54.04;99924.97;20631870;28;20078;-73
2021/06/20 08:22:21;;;;;;;9.88;3.00;;;;;;;24.74;54.93;99932.53;20568708;28;475576;-73
2021/06/20 08:32:24;;;;;;;6.55;2.85;;;;;;;24.85;54.39;99937.84;20585850;28;20492;-73
2021/06/20 08:42:26;;;;;;;6.47;3.22;;;;;;;25.45;53.64;99954.31;20597915;28;20109;-73
2021/06/20 08:52:28;;;;;;;6.63;3.00;;;;;;;25.63;53.53;99952.72;20587082;28;20051;-73
2021/06/20 09:02:30;;;;;;;5.40;2.67;;;;;;;25.53;52.84;99960.72;20582832;28;20051;-73
2021/06/20 09:12:44;;;;;;;5.78;2.80;;;;;;;25.62;52.36;99944.81;20598229;28;20046;-72
2021/06/20 09:22:55;;;;;;;;;;;;;;;25.76;54.94;99931.97;20661200;28;20046;-73
2021/06/20 09:33:00;;;;;;;7.10;2.30;;;;;;;25.86;51.18;99896.28;20661654;28;20063;-73
2021/06/20 09:43:15;;;;;;;6.60;2.45;;;;;;;25.88;53.91;99897.03;20660200;28;20116;-73
2021/06/20 09:53:30;;;;;;;7.05;3.03;;;;;;;24.91;53.34;99890.94;20658894;28;20420;-73
2021/06/20 10:03:32;;;;;;;9.68;2.90;;;;;;;24.88;53.68;99859.09;20659093;28;20113;-72
2021/06/20 10:13:34;;;;;;;7.55;3.00;;;;;;;25.13;54.11;99855.22;20635321;28;20101;-73
2021/06/20 10:23:35;;;;;;;8.80;3.10;;;;;;;25.56;51.98;99841.66;20577660;28;20071;-74
2021/06/20 10:33:37;;;;;;;8.60;2.80;;;;;;;26.07;53.22;99827.34;20576279;28;20462;-74
2021/06/20 10:43:39;;;;;;;9.10;3.35;;;;;;;26.52;50.88;99832.25;20574624;28;20109;-74
2021/06/20 10:53:41;;;;;;;7.25;2.72;;;;;;;26.43;48.71;99807.09;20576820;28;20051;-71
2021/06/20 11:03:52;;;;;;;5.75;2.67;;;;;;;26.29;48.58;99816.34;20575838;28;20043;-68
2021/06/20 11:13:57;;;;;;;8.73;2.95;;;;;;;26.93;49.00;99808.78;20602970;28;20455;-68
2021/06/20 11:23:59;;;;;;;6.75;2.85;;;;;;;27.61;48.71;99798.72;20656161;28;20046;-69
2021/06/20 11:34:00;;;;;;;12.48;2.83;;;;;;;27.74;47.63;99761.59;20654922;28;20101;-69
2021/06/20 11:44:04;;;;;;;7.75;2.90;;;;;;;27.62;49.92;99744.78;20657868;28;20054;-68
2021/06/20 11:54:15;;;;;;;6.30;2.83;;;;;;;27.35;48.80;99724.09;20662328;28;20472;-69
2021/06/20 12:04:23;;;;;;;11.38;3.17;;;;;;;27.67;50.42;99721.97;20586969;28;20043;-69
2021/06/20 12:14:27;;;;;;;8.88;3.13;;;;;;;27.72;48.90;99704.41;20619179;28;20050;-70
2021/06/20 12:24:56;;;;;;;11.18;3.60;;;;;;;27.86;50.00;99681.53;20650819;28;20065;-69
2021/06/20 12:35:02;;;;;;;8.73;3.35;;;;;;;28.18;48.37;99661.31;20666346;28;20117;-70
2021/06/20 12:45:04;;;;;;;11.63;3.67;;;;;;;28.22;47.76;99624.97;20648724;28;20050;-70
2021/06/20 12:55:18;;;;;;;9.33;3.53;;;;;;;28.31;47.91;99607.88;20664061;28;20129;-69
2021/06/20 13:05:40;;;;;;;14.43;3.75;;;;;;;28.26;48.49;99594.91;20663537;28;20084;-69
2021/06/20 13:15:42;;;;;;;9.60;3.38;;;;;;;28.81;47.18;99591.06;20646269;28;20054;-68
2021/06/20 13:25:49;;;;;;;13.93;3.97;;;;;;;28.45;48.40;99587.66;20663576;28;20484;-69
2021/06/20 13:35:51;;;;;;;13.90;4.18;;;;;;;28.54;47.73;99563.31;20662914;28;20043;-68
2021/06/20 13:45:53;;;;;;;9.68;3.85;;;;;;;29.10;47.56;99545.72;20662050;28;20108;-68
2021/06/20 13:55:55;;;;;;;10.63;4.00;;;;;;;29.46;47.52;99531.13;20662283;28;20125;-69
2021/06/20 14:05:57;;;;;;;21.20;4.65;;;;;;;28.68;47.46;99518.75;20660722;28;20050;-68
2021/06/20 14:16:00;;;;;;;13.90;4.22;;;;;;;28.98;46.97;99521.94;20598930;28;20046;-68
2021/06/20 14:26:02;;;;;;;13.67;4.70;;;;;;;29.12;47.02;99519.44;20580744;28;20055;-69
2021/06/20 14:36:04;;;;;;;12.02;4.15;;;;;;;29.34;47.59;99519.84;20578515;28;20460;-68
2021/06/20 14:46:06;;;;;;;14.13;4.33;;;;;;;29.39;46.59;99501.31;20577868;28;20050;-68
2021/06/20 14:56:08;;;;;;;18.90;4.97;;;;;;;29.20;48.13;99502.47;20577420;28;20046;-69
2021/06/20 15:06:09;;;;;;;24.33;5.50;;;;;;;28.68;48.96;99499.91;20576136;28;20046;-69
2021/06/20 15:16:11;;;;;;;11.27;4.50;;;;;;;28.45;49.59;99490.72;20621527;28;20046;-68
2021/06/20 15:26:13;;;;;;;16.13;4.30;;;;;;;28.12;51.27;99485.97;20670769;28;20082;-68
2021/06/20 15:36:17;;;;;;;14.85;4.45;;;;;;;28.02;50.99;99469.06;20670946;28;20109;-70
2021/06/20 15:46:23;;;;;;;17.10;4.38;;;;;;;27.97;52.10;99465.16;20648414;28;20047;-70
2021/06/20 15:56:26;;;;;;;17.90;4.68;;;;;;;27.58;51.83;99460.16;20589671;28;20042;-69
2021/06/20 16:06:29;;;;;;;16.42;4.70;;;;;;;27.34;52.94;99452.72;20588873;28;20121;-69
2021/06/20 16:16:30;;;;;;;19.50;4.28;;;;;;;27.11;53.51;99414.72;20624823;28;20481;-69
2021/06/20 16:26:32;;;;;;;18.55;4.90;;;;;;;26.85;58.33;99428.88;20584848;28;20501;-68
2021/06/20 16:36:34;;;;;;;19.17;5.30;;;;;;;26.52;62.71;99433.06;20584096;28;20046;-69
2021/06/20 16:46:37;;;;;;;17.43;5.60;;;;;;;25.86;68.35;99421.56;20582840;28;20046;-69
2021/06/20 16:56:38;;;;;;;23.02;5.65;;;;;;;25.41;69.56;99419.53;20584014;28;20057;-69
2021/06/20 17:06:40;;;;;;;15.32;6.32;;;;;;;25.31;70.86;99420.38;20582726;28;20043;-69
2021/06/20 17:16:42;;;;;;;21.02;5.95;;;;;;;25.24;72.85;99435.31;20583877;28;20055;-68
2021/06/20 17:26:45;;;;;;;17.20;6.70;;;;;;;24.96;75.96;99460.22;20582056;28;20046;-68
2021/06/20 17:36:47;;;;;;;15.55;7.13;;;;;;;24.55;77.72;99446.06;20564662;28;20047;-69
2021/06/20 17:46:49;;;;;;;18.73;7.38;;;;;;;24.33;77.68;99453.25;20563650;28;20046;-69
2021/06/20 17:56:51;;;;;;;12.93;7.78;;;;;;;23.99;77.80;99412.56;20579926;28;20082;-68
2021/06/20 18:06:52;;;;;;;16.50;7.43;;;;;;;23.97;80.43;99409.19;20575724;28;20050;-66
2021/06/20 18:16:55;;;;;;;16.92;7.65;;;;;;;23.77;80.35;99368.16;20629388;28;20050;-66
2021/06/20 18:26:57;;;;;;;15.70;7.93;;;;;;;23.25;82.97;99375.28;20657769;28;20053;-69
2021/06/20 18:36:59;;;;;;;19.92;7.60;;;;;;;22.95;82.13;99380.53;20657526;28;20096;-68
2021/06/20 18:47:01;;;;;;;20.42;7.95;;;;;;;23.03;84.19;99418.09;20656625;28;20487;-68
2021/06/20 18:57:02;;;;;;;23.35;8.63;;;;;;;23.05;83.29;99453.53;20666996;28;20424;-67
2021/06/20 19:07:04;;;;;;;23.55;9.32;;;;;;;23.14;83.61;99570.28;20673037;28;20110;-67
2021/06/20 19:17:08;;;;;;;15.93;3.80;;;;;;;21.36;79.82;99660.31;20618224;28;20046;-69
2021/06/20 19:27:09;;;;;;;14.88;2.75;;;;;;;19.48;82.84;99642.06;20586185;28;20054;-67
2021/06/20 19:37:12;;;;;;;11.52;2.63;;;;;;;19.21;81.72;99649.13;20587735;28;20047;-66
2021/06/20 19:47:14;;;;;;;11.13;2.45;;;;;;;19.22;82.13;99651.69;20587071;28;20125;-66
2021/06/20 19:57:15;;;;;;;11.27;2.45;;;;;;;19.36;81.57;99626.09;20585406;28;20121;-66
2021/06/20 20:07:17;;;;;;;14.07;1.90;;;;;;;19.29;83.26;99576.97;20584829;28;20047;-68
2021/06/20 20:17:19;;;;;;;11.73;2.90;;;;;;;19.53;82.21;99572.72;20636749;28;20050;-68
2021/06/20 20:27:20;;;;;;;10.32;4.22;;;;;;;19.64;81.34;99551.66;20644943;28;20069;-68
2021/06/20 20:37:22;;;;;;;15.55;5.85;;;;;;;19.51;83.10;99518.88;20660593;28;20479;-69
2021/06/20 20:47:26;;;;;;;10.30;2.25;;;;;;;19.39;81.94;99417.00;20661226;28;20105;-67
2021/06/20 20:57:28;;;;;;;10.88;2.20;;;;;;;18.96;82.84;99388.03;20659899;28;20046;-67
2021/06/20 21:07:30;;;;;;;10.63;2.20;;;;;;;19.25;82.16;99381.72;20640039;28;20042;-69
2021/06/20 21:17:32;;;;;;;11.85;2.75;;;;;;;19.48;83.39;99415.53;20595782;28;20047;-68
2021/06/20 21:27:34;;;;;;;11.95;2.90;;;;;;;19.47;82.68;99432.41;20578121;28;20055;-68
2021/06/20 21:37:38;;;;;;;13.32;3.20;;;;;;;19.53;82.76;99426.69;20560936;28;20580;-69
2021/06/20 21:47:41;;;;;;;10.07;2.57;;;;;;;19.53;83.16;99412.56;20578385;28;20057;-69
2021/06/20 21:57:43;;;;;;;11.57;3.15;;;;;;;19.58;81.89;99397.16;20561090;28;20046;-69
2021/06/20 22:07:45;;;;;;;12.95;2.40;;;;;;;19.34;82.90;99431.53;20548482;28;20051;-68
2021/06/20 22:17:47;;;;;;;12.82;3.03;;;;;;;19.41;82.99;99435.50;20593928;28;20104;-69
2021/06/20 22:27:50;;;;;;;12.60;2.47;;;;;;;19.08;83.49;99435.94;20654622;28;20042;-69
2021/06/20 22:37:52;;;;;;;14.85;2.67;;;;;;;19.01;83.92;99466.47;20653185;28;20097;-69
2021/06/20 22:47:54;;;;;;;11.30;2.75;;;;;;;18.76;84.67;99475.16;20635917;28;20393;-69
2021/06/20 22:57:56;;;;;;;16.42;2.50;;;;;;;18.23;85.15;99480.22;20652464;28;20093;-69
2021/06/20 23:07:58;;;;;;;14.68;3.42;;;;;;;18.00;85.21;99510.75;20652358;28;20046;-69
2021/06/20 23:18:00;;;;;;;11.88;3.08;;;;;;;17.98;85.14;99517.13;20651177;28;20050;-70
2021/06/20 23:28:03;;;;;;;16.08;3.55;;;;;;;17.97;85.19;99499.53;20652150;28;20058;-70
2021/06/20 23:38:04;;;;;;;11.75;2.70;;;;;;;18.02;85.33;99510.69;20650783;28;20073;-69
2021/06/20 23:48:06;;;;;;;13.07;3.13;;;;;;;18.27;83.60;99523.28;20649658;28;20476;-70
2021/06/20 23:58:08;;;;;;;11.85;2.78;;;;;;;18.19;84.05;99542.28;20665283;28;20108;-69
